WetterOnline ( https://www.wetteronline.de )

Wetter aktuell Heckenbach

Aktuelles Wetter: Nürburg-Barweiler (488m)

6-stündlich | Neueste Meldungen
Ortszeit Temperatur Wetter
Di, 24.05. 8:00 9.9° C leichter Regen
Di, 24.05. 2:00 11.3° C wolkig
Mo, 23.05. 20:00 16.3° C leichter Regen
Mo, 23.05. 14:00 21.6° C bedeckt
Mo, 23.05. 8:00 13.2° C leichter Regen
Mo, 23.05. 2:00 14.6° C leicht bewölkt
So, 22.05. 20:00 19.5° C wolkig
So, 22.05. 14:00 19.1° C leicht bewölkt
Ortszeit Temperatur Wetter
Di, 24.05. 9:00 10.0° C bedeckt
Di, 24.05. 8:40 10.1° C bedeckt
Di, 24.05. 8:30 9.7° C Sprühregen
Di, 24.05. 8:20 9.7° C Sprühregen
Di, 24.05. 8:10 9.8° C leichter Regen
Di, 24.05. 8:00 9.9° C leichter Regen
Di, 24.05. 7:50 9.9° C leichter Regen
Di, 24.05. 7:30 9.8° C leichter Regen
Di, 24.05. 7:00 9.7° C Regen
Di, 24.05. 6:30 9.6° C Regen
Di, 24.05. 6:00 11.7° C leichter Regen
Ortszeit Relative Feuchte Sichtweite
Di, 24.05. 8:00 97% 14 km
Di, 24.05. 2:00 94% 18 km
Mo, 23.05. 20:00 93% 6 km
Mo, 23.05. 14:00 62% 60 km
Mo, 23.05. 8:00 79% 20 km
Mo, 23.05. 2:00 67% 50 km
So, 22.05. 20:00 56% 45 km
So, 22.05. 14:00 44% 55 km
Ortszeit Relative Feuchte Sichtweite
Di, 24.05. 9:00 93% 65 km
Di, 24.05. 8:40 92% -
Di, 24.05. 8:30 92% 40 km
Di, 24.05. 8:20 92% -
Di, 24.05. 8:10 96% -
Di, 24.05. 8:00 97% 14 km
Di, 24.05. 7:50 97% -
Di, 24.05. 7:30 96% 16 km
Di, 24.05. 7:00 99% 7 km
Di, 24.05. 6:30 97% 6 km
Di, 24.05. 6:00 94% 9 km
Ortszeit Niederschlagsmenge Niederschlagsart
Di, 24.05. 8:00 10 l/m2 in 12 Std. Regen
Di, 24.05. 2:00 2 l/m2 in 6 Std. Regen
Mo, 23.05. 20:00 16 l/m2 in 12 Std. Regen
Mo, 23.05. 14:00 0.2 l/m2 in 6 Std. Regen
Mo, 23.05. 8:00 0.1 l/m2 in 12 Std. Regen
Mo, 23.05. 2:00 0.0 l/m2 in 6 Std. -
So, 22.05. 20:00 0.0 l/m2 in 12 Std. -
So, 22.05. 14:00 0.0 l/m2 in 6 Std. -
Ortszeit Niederschlagsmenge Niederschlagsart
Di, 24.05. 9:00 0.3 l/m2 in 1 Std. Regen
Di, 24.05. 8:40 keine Meldung -
Di, 24.05. 8:30 0.3 l/m2 in 1 Std. -
Di, 24.05. 8:20 keine Meldung -
Di, 24.05. 8:10 keine Meldung -
Di, 24.05. 8:00 1.8 l/m2 in 1 Std. Regen
Di, 24.05. 7:50 keine Meldung -
Di, 24.05. 7:30 1.0 l/m2 in 1 Std. -
Di, 24.05. 7:00 6.0 l/m2 in 1 Std. Regen
Di, 24.05. 6:30 4.3 l/m2 in 1 Std. -
Di, 24.05. 6:00 0.1 l/m2 in 1 Std. Regen
Ortszeit Stärke Spitze Richtung
km/h Bft. km/h Grad Sektor
Di, 24.05. 8:00 13 3 30 230° SW
Di, 24.05. 2:00 11 2 43 230° SW
Mo, 23.05. 20:00 13 3 33 210° SW
Mo, 23.05. 14:00 9 2 37 190° S
Mo, 23.05. 8:00 11 2 29 230° SW
Mo, 23.05. 2:00 9 2 20 120° SO
So, 22.05. 20:00 7 2 25 90° O
So, 22.05. 14:00 7 2 18 290° W
Ortszeit Stärke Spitze Richtung
km/h Bft. km/h Grad Sektor
Di, 24.05. 9:00 11 2 32 270° W
Di, 24.05. 8:40 9 2 - 270° W
Di, 24.05. 8:30 17 3 31 260° W
Di, 24.05. 8:20 17 3 - 260° W
Di, 24.05. 8:10 14 3 - 240° SW
Di, 24.05. 8:00 13 3 19 230° SW
Di, 24.05. 7:50 13 3 - 230° SW
Di, 24.05. 7:30 11 2 18 230° SW
Di, 24.05. 7:00 7 2 29 220° SW
Di, 24.05. 6:30 14 3 29 250° W
Di, 24.05. 6:00 7 2 18 220° SW
Ortszeit Untergrenze Bedeckung Gattung
total tief tief mittel hoch
Di, 24.05. 8:00 630 m 8/8 8/8 - - -
Di, 24.05. 2:00 570 m 7/8 3/8 - - -
Mo, 23.05. 20:00 720 m 8/8 8/8 - - -
Mo, 23.05. 14:00 3300 m 8/8 8/8 - - -
Mo, 23.05. 8:00 1800 m 8/8 8/8 - - -
Mo, 23.05. 2:00 9000 m 4/8 0/8 - - -
So, 22.05. 20:00 3000 m 7/8 7/8 - - -
So, 22.05. 14:00 9000 m 4/8 0/8 - - -
Ortszeit Bedeckungsgrad in Achtel und Wolkenuntergrenze
Di, 24.05. 9:00 4(270m) 4(570m) 8(1500m)
Di, 24.05. 8:40 8
Di, 24.05. 8:30 1(420m) 7(1470m) 8(1800m)
Di, 24.05. 8:20 1(420m) 7(1470m) 8(1800m)
Di, 24.05. 8:10 8
Di, 24.05. 8:00 4(630m) 7(1320m) 8(1500m)
Di, 24.05. 7:50 4(630m) 7(1320m) 8(1500m)
Di, 24.05. 7:30 1(270m) 4(1290m) 8(1500m)
Di, 24.05. 7:00 1(270m) 7(1500m)
Di, 24.05. 6:30 3(210m) 5(390m) 7(510m)
Di, 24.05. 6:00 3(480m) 7(870m) 7(1080m)
Ortszeit Luftdruck NN (hPa) Tendenz (hPa in 3 Std.)
Di, 24.05. 8:00 1005 + 1,9
Di, 24.05. 2:00 1003 + 0,5
Mo, 23.05. 20:00 998 - 0,8
Mo, 23.05. 14:00 1000 - 2,0
Mo, 23.05. 8:00 1006 - 1,7
Mo, 23.05. 2:00 1009 - 1,6
So, 22.05. 20:00 1010 - 1,7
So, 22.05. 14:00 1014 - 1,3
Ortszeit Luftdruck NN (hPa) Tendenz (hPa in 3 Std.)
Di, 24.05. 9:00 1006 + 2,8
Di, 24.05. 8:40 1006 keine Meldung
Di, 24.05. 8:30 1005 + 2,2
Di, 24.05. 8:20 1005 keine Meldung
Di, 24.05. 8:10 1005 keine Meldung
Di, 24.05. 8:00 1005 + 1,9
Di, 24.05. 7:50 1005 keine Meldung
Di, 24.05. 7:30 1005 + 1,4
Di, 24.05. 7:00 1004 + 0,8
Di, 24.05. 6:30 1004 + 0,4
Di, 24.05. 6:00 1003 - 0,4
Ortszeit Schneehöhe (cm)
Di, 24.05. 8:00 0
Di, 24.05. 2:00 0
Mo, 23.05. 20:00 0
Mo, 23.05. 14:00 0
Mo, 23.05. 8:00 0
Mo, 23.05. 2:00 0
So, 22.05. 20:00 0
So, 22.05. 14:00 0
Ortszeit Schneehöhe (cm)
Di, 24.05. 9:00 0
Di, 24.05. 8:40 0
Di, 24.05. 8:30 0
Di, 24.05. 8:20 0
Di, 24.05. 8:10 0
Di, 24.05. 8:00 0
Di, 24.05. 7:50 0
Di, 24.05. 7:30 0
Di, 24.05. 7:00 0
Di, 24.05. 6:30 0
Di, 24.05. 6:00 0
Link zu dieser Seite / Seite empfehlen

Das Wetter in ...